sensor_id;sensor_type;location;lat;lon;timestamp;pressure;altitude;pressure_sealevel;temperature;humidity
26839;BME280;40088;51.214;6.786;2023-05-09T00:06:13;101486.09;;;18.16;63.76
26839;BME280;40088;51.214;6.786;2023-05-09T00:16:14;101480.56;;;18.16;63.71
26839;BME280;40088;51.214;6.786;2023-05-09T00:26:15;101473.34;;;18.15;63.72
26839;BME280;40088;51.214;6.786;2023-05-09T00:36:15;101461.28;;;18.16;63.63
26839;BME280;40088;51.214;6.786;2023-05-09T00:46:16;101444.72;;;18.16;63.42
26839;BME280;40088;51.214;6.786;2023-05-09T00:56:16;101427.31;;;18.16;63.59
26839;BME280;40088;51.214;6.786;2023-05-09T01:06:36;101425.41;;;18.16;63.68
26839;BME280;40088;51.214;6.786;2023-05-09T01:16:54;101410.97;;;18.14;63.65
26839;BME280;40088;51.214;6.786;2023-05-09T01:37:12;101396.13;;;18.15;63.63
26839;BME280;40088;51.214;6.786;2023-05-09T01:47:14;101394.22;;;18.16;63.71
26839;BME280;40088;51.214;6.786;2023-05-09T01:57:17;101391.47;;;18.16;63.69
26839;BME280;40088;51.214;6.786;2023-05-09T02:07:19;101399.72;;;18.16;63.83
26839;BME280;40088;51.214;6.786;2023-05-09T02:17:19;101387.84;;;18.15;63.61
26839;BME280;40088;51.214;6.786;2023-05-09T02:27:20;101388.69;;;18.16;63.81
26839;BME280;40088;51.214;6.786;2023-05-09T02:37:22;101396.97;;;18.16;63.72
26839;BME280;40088;51.214;6.786;2023-05-09T02:47:22;101374.91;;;18.16;63.71
26839;BME280;40088;51.214;6.786;2023-05-09T02:57:23;101378.53;;;18.16;63.76
26839;BME280;40088;51.214;6.786;2023-05-09T03:07:23;101363.03;;;18.15;63.79
26839;BME280;40088;51.214;6.786;2023-05-09T03:17:23;101370.25;;;18.16;63.71
26839;BME280;40088;51.214;6.786;2023-05-09T03:27:24;101370.25;;;18.16;63.87
26839;BME280;40088;51.214;6.786;2023-05-09T03:37:25;101367.50;;;18.16;63.77
26839;BME280;40088;51.214;6.786;2023-05-09T03:47:25;101345.41;;;18.16;63.79
26839;BME280;40088;51.214;6.786;2023-05-09T03:57:25;101339.91;;;18.16;63.70
26839;BME280;40088;51.214;6.786;2023-05-09T04:07:26;101325.25;;;18.16;63.81
26839;BME280;40088;51.214;6.786;2023-05-09T04:17:27;101310.63;;;18.15;63.70
26839;BME280;40088;51.214;6.786;2023-05-09T04:27:27;101301.28;;;18.16;63.82
26839;BME280;40088;51.214;6.786;2023-05-09T04:37:28;101306.81;;;18.16;63.58
26839;BME280;40088;51.214;6.786;2023-05-09T04:47:28;101301.28;;;18.16;63.69
26839;BME280;40088;51.214;6.786;2023-05-09T04:57:28;101296.81;;;18.15;63.67
26839;BME280;40088;51.214;6.786;2023-05-09T05:07:29;101297.47;;;18.17;63.76
26839;BME280;40088;51.214;6.786;2023-05-09T05:17:29;101286.44;;;18.17;63.77
26839;BME280;40088;51.214;6.786;2023-05-09T05:27:30;101283.69;;;18.17;63.65
26839;BME280;40088;51.214;6.786;2023-05-09T05:37:31;101256.09;;;18.17;63.68
26839;BME280;40088;51.214;6.786;2023-05-09T05:47:35;101255.25;;;18.17;63.79
26839;BME280;40088;51.214;6.786;2023-05-09T05:57:36;101245.06;;;18.17;63.87
26839;BME280;40088;51.214;6.786;2023-05-09T06:07:38;101236.78;;;18.17;63.80
26839;BME280;40088;51.214;6.786;2023-05-09T06:17:40;101223.84;;;18.18;63.78
26839;BME280;40088;51.214;6.786;2023-05-09T06:27:41;101213.66;;;18.18;63.72
26839;BME280;40088;51.214;6.786;2023-05-09T06:37:41;101197.13;;;18.18;63.82
26839;BME280;40088;51.214;6.786;2023-05-09T06:47:41;101187.16;;;18.17;63.61
26839;BME280;40088;51.214;6.786;2023-05-09T06:57:41;101178.88;;;18.17;64.15
26839;BME280;40088;51.214;6.786;2023-05-09T07:07:42;101158.50;;;18.18;63.85
26839;BME280;40088;51.214;6.786;2023-05-09T07:17:43;101156.59;;;18.19;63.69
26839;BME280;40088;51.214;6.786;2023-05-09T07:27:43;101144.72;;;18.18;63.93
26839;BME280;40088;51.214;6.786;2023-05-09T07:37:43;101130.94;;;18.18;63.77
26839;BME280;40088;51.214;6.786;2023-05-09T07:47:43;101125.41;;;18.18;63.66
26839;BME280;40088;51.214;6.786;2023-05-09T07:57:44;101116.09;;;18.19;63.78
26839;BME280;40088;51.214;6.786;2023-05-09T08:07:44;101092.31;;;18.18;63.95
26839;BME280;40088;51.214;6.786;2023-05-09T08:17:45;101075.75;;;18.18;63.96
26839;BME280;40088;51.214;6.786;2023-05-09T08:27:45;101054.53;;;18.19;63.83
26839;BME280;40088;51.214;6.786;2023-05-09T08:37:45;101049.91;;;18.19;63.77
26839;BME280;40088;51.214;6.786;2023-05-09T08:47:47;101039.72;;;18.20;63.78
26839;BME280;40088;51.214;6.786;2023-05-09T08:57:47;101025.94;;;18.20;63.88
26839;BME280;40088;51.214;6.786;2023-05-09T09:07:49;101005.78;;;18.19;63.84
26839;BME280;40088;51.214;6.786;2023-05-09T09:17:50;100990.09;;;18.20;64.04
26839;BME280;40088;51.214;6.786;2023-05-09T09:27:55;100984.56;;;18.20;63.83
26839;BME280;40088;51.214;6.786;2023-05-09T09:37:56;100971.81;;;18.19;63.94
26839;BME280;40088;51.214;6.786;2023-05-09T09:48:04;100970.78;;;18.20;63.81
26839;BME280;40088;51.214;6.786;2023-05-09T09:58:18;100960.59;;;18.20;63.86
26839;BME280;40088;51.214;6.786;2023-05-09T10:08:20;100938.53;;;18.20;63.74
26839;BME280;40088;51.214;6.786;2023-05-09T10:18:24;100934.06;;;18.19;63.84
26839;BME280;40088;51.214;6.786;2023-05-09T10:28:30;100923.88;;;18.20;63.79
26839;BME280;40088;51.214;6.786;2023-05-09T10:38:31;100901.81;;;18.20;63.70
26839;BME280;40088;51.214;6.786;2023-05-09T10:48:32;100889.94;;;18.19;63.78
26839;BME280;40088;51.214;6.786;2023-05-09T10:58:33;100877.84;;;18.20;63.78
26839;BME280;40088;51.214;6.786;2023-05-09T11:08:41;100871.47;;;18.20;63.79
26839;BME280;40088;51.214;6.786;2023-05-09T11:18:51;100850.25;;;18.20;63.86
26839;BME280;40088;51.214;6.786;2023-05-09T11:28:53;100828.34;;;18.47;63.43
26839;BME280;40088;51.214;6.786;2023-05-09T11:39:07;100808.00;;;18.55;63.26
26839;BME280;40088;51.214;6.786;2023-05-09T11:49:08;100792.88;;;18.44;63.91
26839;BME280;40088;51.214;6.786;2023-05-09T11:59:10;100776.94;;;18.39;63.74
26839;BME280;40088;51.214;6.786;2023-05-09T12:09:12;100774.59;;;18.36;63.74
26839;BME280;40088;51.214;6.786;2023-05-09T12:19:17;100750.84;;;18.35;63.73
26839;BME280;40088;51.214;6.786;2023-05-09T12:29:18;100747.19;;;18.35;63.73
26839;BME280;40088;51.214;6.786;2023-05-09T12:39:19;100732.56;;;18.34;63.68
26839;BME280;40088;51.214;6.786;2023-05-09T12:49:23;100718.13;;;18.32;63.72
26839;BME280;40088;51.214;6.786;2023-05-09T12:59:26;100721.72;;;18.33;63.80
26839;BME280;40088;51.214;6.786;2023-05-09T13:09:27;100738.28;;;18.33;63.69
26839;BME280;40088;51.214;6.786;2023-05-09T13:19:28;100720.88;;;18.32;63.78
26839;BME280;40088;51.214;6.786;2023-05-09T13:29:28;100720.03;;;18.32;63.87
26839;BME280;40088;51.214;6.786;2023-05-09T13:39:29;100716.44;;;18.31;63.75
26839;BME280;40088;51.214;6.786;2023-05-09T13:49:30;100705.41;;;18.31;63.87
26839;BME280;40088;51.214;6.786;2023-05-09T13:59:31;100704.56;;;18.31;63.92
26839;BME280;40088;51.214;6.786;2023-05-09T14:09:31;100697.13;;;18.31;63.87
26839;BME280;40088;51.214;6.786;2023-05-09T14:19:37;100688.84;;;18.31;63.83
26839;BME280;40088;51.214;6.786;2023-05-09T14:29:37;100669.53;;;18.31;63.83
26839;BME280;40088;51.214;6.786;2023-05-09T14:39:40;100692.44;;;18.32;64.00
26839;BME280;40088;51.214;6.786;2023-05-09T14:49:41;100683.31;;;18.31;63.93
26839;BME280;40088;51.214;6.786;2023-05-09T14:59:41;100675.91;;;18.32;63.92
26839;BME280;40088;51.214;6.786;2023-05-09T15:09:42;100664.88;;;18.32;63.80
26839;BME280;40088;51.214;6.786;2023-05-09T15:19:42;100658.28;;;18.33;63.94
26839;BME280;40088;51.214;6.786;2023-05-09T15:29:42;100644.50;;;18.33;63.93
26839;BME280;40088;51.214;6.786;2023-05-09T15:39:43;100630.69;;;18.33;64.07
26839;BME280;40088;51.214;6.786;2023-05-09T15:49:44;100622.44;;;18.33;63.81
26839;BME280;40088;51.214;6.786;2023-05-09T15:59:44;100611.38;;;18.33;64.10
26839;BME280;40088;51.214;6.786;2023-05-09T16:09:45;100608.63;;;18.33;64.15
26839;BME280;40088;51.214;6.786;2023-05-09T16:19:45;100600.34;;;18.33;64.18
26839;BME280;40088;51.214;6.786;2023-05-09T16:29:45;100598.44;;;18.33;64.29
26839;BME280;40088;51.214;6.786;2023-05-09T16:39:46;100603.13;;;18.33;64.26
26839;BME280;40088;51.214;6.786;2023-05-09T16:49:46;100592.09;;;18.33;64.18
26839;BME280;40088;51.214;6.786;2023-05-09T16:59:46;100584.66;;;18.33;64.24
26839;BME280;40088;51.214;6.786;2023-05-09T17:09:47;100588.25;;;18.34;64.20
26839;BME280;40088;51.214;6.786;2023-05-09T17:19:48;100584.66;;;18.33;64.35
26839;BME280;40088;51.214;6.786;2023-05-09T17:29:49;100587.41;;;18.33;64.34
26839;BME280;40088;51.214;6.786;2023-05-09T17:39:50;100576.38;;;18.33;64.38
26839;BME280;40088;51.214;6.786;2023-05-09T17:49:50;100571.72;;;18.34;64.27
26839;BME280;40088;51.214;6.786;2023-05-09T17:59:51;100567.03;;;18.34;64.45
26839;BME280;40088;51.214;6.786;2023-05-09T18:09:51;100560.66;;;18.34;64.35
26839;BME280;40088;51.214;6.786;2023-05-09T18:19:51;100564.50;;;18.33;64.36
26839;BME280;40088;51.214;6.786;2023-05-09T18:29:52;100562.38;;;18.35;64.47
26839;BME280;40088;51.214;6.786;2023-05-09T18:39:52;100559.59;;;18.35;64.53
26839;BME280;40088;51.214;6.786;2023-05-09T18:49:52;100556.00;;;18.34;64.44
26839;BME280;40088;51.214;6.786;2023-05-09T18:59:53;100554.09;;;18.35;64.38
26839;BME280;40088;51.214;6.786;2023-05-09T19:09:53;100555.16;;;18.34;64.64
26839;BME280;40088;51.214;6.786;2023-05-09T19:19:53;100552.41;;;18.34;64.54
26839;BME280;40088;51.214;6.786;2023-05-09T19:29:53;100560.47;;;18.35;64.59
26839;BME280;40088;51.214;6.786;2023-05-09T19:39:54;100568.75;;;18.35;64.62
26839;BME280;40088;51.214;6.786;2023-05-09T19:49:54;100567.88;;;18.35;64.68
26839;BME280;40088;51.214;6.786;2023-05-09T19:59:56;100565.13;;;18.35;64.48
26839;BME280;40088;51.214;6.786;2023-05-09T20:09:56;100573.41;;;18.35;64.45
26839;BME280;40088;51.214;6.786;2023-05-09T20:19:56;100567.88;;;18.35;64.50
26839;BME280;40088;51.214;6.786;2023-05-09T20:29:57;100562.38;;;18.35;64.60
26839;BME280;40088;51.214;6.786;2023-05-09T20:39:59;100556.00;;;18.34;64.48
26839;BME280;40088;51.214;6.786;2023-05-09T20:50:00;100559.59;;;18.35;64.32
26839;BME280;40088;51.214;6.786;2023-05-09T21:00:00;100562.38;;;18.35;64.41
26839;BME280;40088;51.214;6.786;2023-05-09T21:10:00;100555.16;;;18.34;64.51
26839;BME280;40088;51.214;6.786;2023-05-09T21:20:01;100562.38;;;18.35;64.47
26839;BME280;40088;51.214;6.786;2023-05-09T21:30:01;100561.53;;;18.34;64.18
26839;BME280;40088;51.214;6.786;2023-05-09T21:40:01;100552.41;;;18.34;64.38
26839;BME280;40088;51.214;6.786;2023-05-09T21:50:02;100553.25;;;18.34;64.31
26839;BME280;40088;51.214;6.786;2023-05-09T22:00:05;100556.00;;;18.34;64.33
26839;BME280;40088;51.214;6.786;2023-05-09T22:10:05;100549.63;;;18.34;64.32
26839;BME280;40088;51.214;6.786;2023-05-09T22:20:06;100549.63;;;18.34;64.41
26839;BME280;40088;51.214;6.786;2023-05-09T22:30:08;100544.97;;;18.34;64.49
26839;BME280;40088;51.214;6.786;2023-05-09T22:40:11;100552.41;;;18.34;64.42
26839;BME280;40088;51.214;6.786;2023-05-09T22:50:11;100555.16;;;18.34;64.49
26839;BME280;40088;51.214;6.786;2023-05-09T23:00:12;100555.16;;;18.34;64.46
26839;BME280;40088;51.214;6.786;2023-05-09T23:10:12;100552.41;;;18.34;64.54
26839;BME280;40088;51.214;6.786;2023-05-09T23:20:13;100546.88;;;18.34;64.53
26839;BME280;40088;51.214;6.786;2023-05-09T23:30:13;100551.31;;;18.35;64.38
26839;BME280;40088;51.214;6.786;2023-05-09T23:40:13;100550.69;;;18.33;64.34
26839;BME280;40088;51.214;6.786;2023-05-09T23:50:14;100543.28;;;18.33;64.54
